Monday, October 20, 2014
09:49 UTC
  |  Log In   |  Register Free
Airport Search:

Teterboro Airport
(KTEB)

Airport information sponsored by:
Landmark Aviation - TEB at Teterboro (KTEB), Teterboro, NJ
FAA data valid effective September 18, 2014 - November 13, 2014 (unless otherwise noted).

 
 
 
 
 
 
 
 
 
 
 
 
 
 

Current Aviation Weather for Teterboro Airport (KTEB)

The most recent METAR observation for KTEB was updated at: 0918
METAR Summary (Translated METAR)
KTEB
200851Z 24005KT 10SM CLR 04/M02 A3009 RMK AO2 SLP188 T00441022 51008
KLGA
200851Z 27008KT 10SM BKN220 07/M02 A3009 RMK AO2 SLP189 T00671017 51009
(9.6 nm SE from KTEB)
KCDW
200853Z AUTO 19003KT 10SM CLR 02/M02 A3010 RMK AO2 SLP198 T00221017 53005 TSNO
(10.1 nm NW from KTEB)
TAF Summary (Translated TAF)
KTEB
200831Z 2009/2106 VRB02KT P6SM BKN220 FM201400 23006KT P6SM BKN200 FM202000 21008KT P6SM FEW035 OVC150 FM210000 21004KT P6SM SCT035 OVC120
KLGA
(9.6 nm SE from KTEB)
200831Z 2009/2106 28007KT P6SM BKN220 FM201400 24009KT P6SM BKN200 FM202000 21011KT P6SM FEW040 OVC150 FM210000 20008KT P6SM SCT035 OVC120
  Airport Weather Conditions for KTEB

 Current Weather at TEB
40° F
Fair
Southwest winds at 5.8 mph
TEB NOAA Radar

Pressure: 30.09 in
Humidity: 63%
Wind: Southwest at 5.8 MPH (5 KT)
Dew Point: 28.0°F
Visibility: 10.00 mi


Airport Weather Forecast for KTEB

Translated METAR and TAF for KTEB
Translated METAR for KTEB (0944 UTC 20 October 2014)
found at http://aviationweather.gov/adds/metars/
 
METAR text: KTEB 200851Z 24005KT 10SM CLR 04/M02 A3009 RMK AO2 SLP188 T00441022 51008
Conditions at: KTEB (TETERBORO , NJ, US) observed 0851 UTC 20 October 2014
Temperature: 4.4°C (40°F)
Dewpoint: -2.2°C (28°F) [RH = 62%]
Pressure (altimeter): 30.09 inches Hg (1019.0 mb)
[Sea-level pressure: 1018.8 mb]
Winds: from the WSW (240 degrees) at 6 MPH (5 knots; 2.6 m/s)
Visibility: 10 or more miles (16+ km)
Ceiling: at least 12,000 feet AGL
Clouds: sky clear below 12,000 feet AGL
Weather: no significant weather observed at this time
Translated TAF for KTEB
Forecast for: KTEB (TETERBORO , NJ, US)
TAF Text: KTEB 200831Z 2009/2106 VRB02KT P6SM BKN220
Forecast period: 0900 to 1400 UTC 20 October 2014
Forecast type: FROM: standard forecast or significant change
Winds: variable direction winds at 2 MPH (2 knots; 1.0 m/s)
Visibility: 6 or more miles (10+ km)
Ceiling: 22000 feet AGL
Clouds: broken clouds at 22000 feet AGL
Weather: no significant weather forecast for this period
TAF Text: FM201400 23006KT P6SM BKN200
Forecast period: 1400 to 2000 UTC 20 October 2014
Forecast type: FROM: standard forecast or significant change
Winds: from the SW (230 degrees) at 7 MPH (6 knots; 3.1 m/s)
Visibility: 6 or more miles (10+ km)
Ceiling: 20000 feet AGL
Clouds: broken clouds at 20000 feet AGL
Weather: no significant weather forecast for this period
TAF Text: FM202000 21008KT P6SM FEW035 OVC150
Forecast period: 2000 UTC 20 October 2014 to 0000 UTC 21 October 2014
Forecast type: FROM: standard forecast or significant change
Winds: from the SSW (210 degrees) at 9 MPH (8 knots; 4.2 m/s)
Visibility: 6 or more miles (10+ km)
Ceiling: 15000 feet AGL
Clouds: few clouds at 3500 feet AGL
overcast cloud deck at 15000 feet AGL
Weather: no significant weather forecast for this period
TAF Text: FM210000 21004KT P6SM SCT035 OVC120
Forecast period: 0000 to 0600 UTC 21 October 2014
Forecast type: FROM: standard forecast or significant change
Winds: from the SSW (210 degrees) at 5 MPH (4 knots; 2.1 m/s)
Visibility: 6 or more miles (10+ km)
Ceiling: 12000 feet AGL
Clouds: scattered clouds at 3500 feet AGL
overcast cloud deck at 12000 feet AGL
Weather: no significant weather forecast for this period

Find All Airport Services Find A Hotel Find A Rental Car Find A Golf Course Find A Restaurant $100 Hamburger



FBO's on the Field
FBO Company Facility Photos Services Transportation Aviation Fuel Prices: Prices include tax
Catering Weather Repair Courtesy Rental Type 100LL JetA JetA+ MOGAS 8087
 
Landmark Aviation - TEB

Landmark Aviation - TEB logo
Currently rated 4.2 by 5 people
FS:
Last Updated: Oct-17
Login to update fuel prices
SS:
Contact Landmark Aviation - TEBMore FBO Information
 
Atlantic Aviation

Currently rated 4 by 1 person
FS:Texaco
Last Updated: Oct-17
Login to update fuel prices
SS:
Contact Atlantic AviationMore FBO Information
 
Jet Aviation

Currently rated 4.7 by 3 people
FS: Phillips 66
Last Updated: Oct-01
Login to update fuel prices
SS:
Contact Jet AviationMore FBO Information
 
Meridian Teterboro

Currently rated 4.4 by 4 people
FS:Shell
Last Updated: Oct-15
Login to update fuel prices
SS:
Contact Meridian TeterboroMore FBO Information
 
Signature Flight Support

Currently rated 3.4 by 1 person
FS:Independent
Last Updated: Oct-17
Login to update fuel prices
SS:
Contact Signature Flight SupportMore FBO Information
 
Add another FBO Facility Photos Catering Weather Repair Courtesy Rental Type 100LL JetA JetA+ MOGAS 8087
Services Transportation Aviation Fuel Prices: Prices include tax


model-print
model-print
model-print
model-print